createdAt,value
2022-10-06T00:01:55.714Z,1.73
2022-10-06T00:04:41.170Z,1.60
2022-10-06T00:07:26.998Z,1.48
2022-10-06T00:10:12.440Z,2.05
2022-10-06T00:12:58.506Z,1.67
2022-10-06T00:15:43.855Z,1.23
2022-10-06T00:18:30.101Z,1.90
2022-10-06T00:21:16.280Z,1.45
2022-10-06T00:24:01.995Z,1.42
2022-10-06T00:26:47.649Z,1.25
2022-10-06T00:29:32.985Z,1.73
2022-10-06T00:32:18.225Z,1.80
2022-10-06T00:35:04.425Z,1.88
2022-10-06T00:37:50.068Z,1.55
2022-10-06T00:40:35.598Z,1.48
2022-10-06T00:43:42.551Z,1.17
2022-10-06T00:46:35.601Z,1.42
2022-10-06T00:49:28.468Z,1.55
2022-10-06T00:52:21.665Z,1.75
2022-10-06T00:55:09.572Z,1.38
2022-10-06T00:57:55.339Z,1.73
2022-10-06T01:00:44.262Z,1.88
2022-10-06T01:03:42.796Z,1.77
2022-10-06T01:06:28.328Z,1.35
2022-10-06T01:09:16.964Z,1.00
2022-10-06T01:12:05.620Z,1.63
2022-10-06T01:14:52.362Z,1.75
2022-10-06T01:18:02.308Z,2.03
2022-10-06T01:20:57.159Z,1.55
2022-10-06T01:23:42.733Z,1.35
2022-10-06T01:26:31.177Z,1.67
2022-10-06T01:29:17.491Z,1.55
2022-10-06T01:32:03.634Z,1.27
2022-10-06T01:34:49.540Z,1.42
2022-10-06T01:37:35.860Z,1.67
2022-10-06T01:40:22.873Z,1.67
2022-10-06T01:43:08.154Z,1.58
2022-10-06T01:45:57.939Z,1.02
2022-10-06T01:48:43.645Z,2.10
2022-10-06T01:51:31.741Z,2.13
2022-10-06T01:54:16.953Z,1.50
2022-10-06T01:57:02.506Z,1.48
2022-10-06T01:59:52.690Z,1.60
2022-10-06T02:02:41.020Z,1.77
2022-10-06T02:05:26.501Z,1.65
2022-10-06T02:08:13.217Z,1.75
2022-10-06T02:11:04.485Z,3.28
2022-10-06T02:13:50.214Z,1.48
2022-10-06T02:16:36.181Z,1.70
2022-10-06T02:19:21.746Z,2.10
2022-10-06T02:22:07.133Z,1.55
2022-10-06T02:24:52.596Z,1.60
2022-10-06T02:27:39.856Z,1.90
2022-10-06T02:30:27.848Z,1.70
2022-10-06T02:33:13.214Z,2.00
2022-10-06T02:35:59.129Z,1.52
2022-10-06T02:38:46.777Z,1.80
2022-10-06T02:41:32.852Z,1.20
2022-10-06T02:44:18.422Z,2.10
2022-10-06T02:47:04.899Z,2.72
2022-10-06T02:49:51.115Z,1.98
2022-10-06T02:52:38.610Z,1.52
2022-10-06T02:55:24.380Z,1.40
2022-10-06T02:58:09.587Z,1.75
2022-10-06T03:00:54.938Z,1.90
2022-10-06T03:03:41.053Z,1.85
2022-10-06T03:06:29.182Z,1.20
2022-10-06T03:09:23.378Z,1.25
2022-10-06T03:12:10.113Z,1.80
2022-10-06T03:15:01.490Z,1.33
2022-10-06T03:17:50.376Z,1.90
2022-10-06T03:20:35.858Z,1.38
2022-10-06T03:23:21.895Z,1.48
2022-10-06T03:26:08.907Z,1.52
2022-10-06T03:28:55.553Z,1.40
2022-10-06T03:31:43.399Z,1.60
2022-10-06T03:34:30.525Z,1.60
2022-10-06T03:37:19.221Z,1.50
2022-10-06T03:40:05.314Z,2.75
2022-10-06T03:42:50.638Z,1.98
2022-10-06T03:45:36.021Z,1.40
2022-10-06T03:48:21.350Z,1.50
2022-10-06T03:51:11.634Z,2.10
2022-10-06T03:53:59.129Z,1.38
2022-10-06T03:56:46.188Z,1.52
2022-10-06T03:59:34.403Z,2.30
2022-10-06T04:02:22.035Z,2.08
2022-10-06T04:05:08.447Z,1.42
2022-10-06T04:07:53.707Z,1.45
2022-10-06T04:10:39.017Z,1.40
2022-10-06T04:13:24.844Z,1.65
2022-10-06T04:16:18.326Z,1.27
2022-10-06T04:19:06.501Z,1.65
2022-10-06T04:21:52.264Z,1.42
2022-10-06T04:24:40.980Z,1.83
2022-10-06T04:27:29.200Z,1.85
2022-10-06T04:30:21.502Z,2.28
2022-10-06T04:33:07.479Z,2.38
2022-10-06T04:36:04.658Z,1.45
2022-10-06T04:39:02.786Z,0.85
2022-10-06T04:41:50.184Z,1.50
2022-10-06T04:44:40.532Z,1.40
2022-10-06T04:47:25.893Z,1.42
2022-10-06T04:50:11.367Z,1.60
2022-10-06T04:53:04.949Z,1.70
2022-10-06T04:56:11.123Z,1.65
2022-10-06T04:58:58.023Z,1.25
2022-10-06T05:01:44.029Z,1.77
2022-10-06T05:04:32.042Z,1.25
2022-10-06T05:07:17.511Z,0.90
2022-10-06T05:10:03.440Z,1.13
2022-10-06T05:12:50.253Z,1.58
2022-10-06T05:15:35.940Z,1.27
2022-10-06T05:18:21.890Z,0.93
2022-10-06T05:21:11.332Z,0.63
2022-10-06T05:23:57.570Z,0.90
2022-10-06T05:26:43.271Z,0.77
2022-10-06T05:29:32.204Z,1.15
2022-10-06T05:32:17.481Z,0.88
2022-10-06T05:35:03.006Z,0.70
2022-10-06T05:37:48.513Z,0.80
2022-10-06T05:40:34.679Z,0.90
2022-10-06T05:43:20.055Z,1.13
2022-10-06T05:46:09.018Z,1.08
2022-10-06T05:49:00.371Z,1.15
2022-10-06T05:51:49.161Z,1.20
2022-10-06T05:54:45.833Z,1.67
2022-10-06T05:57:31.466Z,1.05
2022-10-06T06:00:17.826Z,1.05
2022-10-06T06:03:09.069Z,1.27
2022-10-06T06:05:54.959Z,1.38
2022-10-06T06:08:40.531Z,1.25
2022-10-06T06:11:27.973Z,0.80
2022-10-06T06:14:17.880Z,0.95
2022-10-06T06:17:05.509Z,1.13
2022-10-06T06:19:51.331Z,0.95
2022-10-06T06:22:36.746Z,0.98
2022-10-06T06:25:23.960Z,1.38
2022-10-06T06:28:09.369Z,1.25
2022-10-06T06:31:03.000Z,1.27
2022-10-06T06:33:52.065Z,1.10
2022-10-06T06:36:45.091Z,1.20
2022-10-06T06:39:34.049Z,0.85
2022-10-06T06:42:19.347Z,1.02
2022-10-06T06:45:09.333Z,1.40
2022-10-06T06:47:59.285Z,1.80
2022-10-06T06:50:44.662Z,1.50
2022-10-06T06:53:31.824Z,1.23
2022-10-06T06:56:21.504Z,1.70
2022-10-06T06:59:09.195Z,1.65
2022-10-06T07:01:54.786Z,1.80
2022-10-06T07:04:41.645Z,1.75
2022-10-06T07:07:29.143Z,1.98
2022-10-06T07:10:14.649Z,1.83
2022-10-06T07:13:00.484Z,2.38
2022-10-06T07:16:07.448Z,2.30
2022-10-06T07:19:11.597Z,1.80
2022-10-06T07:22:17.072Z,2.22
2022-10-06T07:25:12.986Z,1.92
2022-10-06T07:28:02.675Z,2.80
2022-10-06T07:30:52.967Z,1.43
2022-10-06T07:33:40.976Z,2.65
2022-10-06T07:36:27.560Z,2.35
2022-10-06T07:39:13.039Z,2.10
2022-10-06T07:41:58.496Z,1.52
2022-10-06T07:45:05.630Z,1.25
2022-10-06T07:47:58.828Z,2.92
2022-10-06T07:50:47.958Z,1.95
2022-10-06T07:53:37.439Z,2.40
2022-10-06T07:56:37.633Z,3.08
2022-10-06T07:59:23.171Z,1.88
2022-10-06T08:02:08.710Z,1.88
2022-10-06T08:04:54.844Z,1.40
2022-10-06T08:07:41.164Z,1.50
2022-10-06T08:10:26.945Z,1.70
2022-10-06T08:13:12.571Z,1.42
2022-10-06T08:16:08.004Z,2.05
2022-10-06T08:18:54.923Z,1.73
2022-10-06T08:21:40.798Z,1.50
2022-10-06T08:24:30.537Z,1.45
2022-10-06T08:27:19.308Z,2.08
2022-10-06T08:30:07.327Z,1.60
2022-10-06T08:32:52.939Z,2.03
2022-10-06T08:35:39.669Z,1.67
2022-10-06T08:38:25.111Z,1.40
2022-10-06T08:41:21.240Z,1.90
2022-10-06T08:44:16.147Z,1.73
2022-10-06T08:47:05.786Z,1.23
2022-10-06T08:49:55.158Z,1.60
2022-10-06T08:53:21.865Z,2.35
2022-10-06T08:56:20.739Z,1.75
2022-10-06T08:59:08.338Z,1.85
2022-10-06T09:01:54.917Z,1.92
2022-10-06T09:04:40.814Z,2.05
2022-10-06T09:07:42.212Z,1.98
2022-10-06T09:10:50.470Z,1.60
2022-10-06T09:14:05.188Z,1.52
2022-10-06T09:16:57.403Z,1.38
2022-10-06T09:22:32.950Z,1.45
2022-10-06T09:25:22.171Z,1.83
2022-10-06T09:28:15.927Z,0.70
2022-10-06T09:31:03.552Z,1.00
2022-10-06T09:33:53.331Z,1.35
2022-10-06T09:37:01.274Z,1.15
2022-10-06T09:39:51.156Z,1.35
2022-10-06T09:42:36.649Z,1.50
2022-10-06T09:45:25.601Z,1.50
2022-10-06T09:48:20.983Z,0.90
2022-10-06T09:51:13.426Z,1.73
2022-10-06T09:54:17.312Z,1.35
2022-10-06T09:57:28.925Z,1.05
2022-10-06T10:00:36.087Z,1.33
2022-10-06T10:03:22.805Z,1.38
2022-10-06T10:06:09.179Z,0.80
2022-10-06T10:09:23.937Z,0.82
2022-10-06T10:12:24.584Z,1.13
2022-10-06T10:15:10.481Z,0.65
2022-10-06T10:17:59.186Z,0.73
2022-10-06T10:20:52.839Z,0.80
2022-10-06T10:23:42.735Z,1.00
2022-10-06T10:27:13.485Z,0.57
2022-10-06T10:30:14.866Z,1.55
2022-10-06T10:33:18.882Z,0.70
2022-10-06T10:36:06.824Z,0.68
2022-10-06T10:38:54.431Z,0.85
2022-10-06T10:41:52.414Z,0.77
2022-10-06T10:44:47.634Z,1.00
2022-10-06T10:47:43.652Z,0.80
2022-10-06T10:50:43.271Z,1.00
2022-10-06T10:53:59.839Z,0.95
2022-10-06T10:56:49.290Z,1.13
2022-10-06T10:59:48.135Z,1.08
2022-10-06T11:02:35.796Z,0.77
2022-10-06T11:05:33.846Z,1.27
2022-10-06T11:08:45.648Z,1.30
2022-10-06T11:11:51.962Z,0.90
2022-10-06T11:15:03.596Z,1.33
2022-10-06T11:17:50.936Z,1.40
2022-10-06T11:21:06.187Z,0.90
2022-10-06T11:24:03.228Z,1.20
2022-10-06T11:27:26.782Z,1.10
2022-10-06T11:30:18.409Z,1.10
2022-10-06T11:33:13.779Z,0.75
2022-10-06T11:36:02.398Z,0.77
2022-10-06T11:38:56.734Z,1.02
2022-10-06T11:41:49.523Z,1.10
2022-10-06T11:44:44.535Z,1.52
2022-10-06T11:48:00.597Z,1.27
2022-10-06T11:50:49.300Z,0.63
2022-10-06T11:53:35.181Z,1.20
2022-10-06T11:56:20.867Z,1.25
2022-10-06T11:59:27.502Z,0.73
2022-10-06T12:02:33.213Z,0.98
2022-10-06T12:08:39.467Z,0.95
2022-10-06T12:11:42.470Z,0.93
2022-10-06T12:16:32.534Z,0.57
2022-10-06T12:18:07.646Z,0.80
2022-10-06T12:21:08.316Z,0.45
2022-10-06T12:24:06.394Z,1.35
2022-10-06T12:27:34.940Z,1.30
2022-10-06T12:30:33.864Z,0.80
2022-10-06T12:33:26.589Z,1.77
2022-10-06T12:36:28.398Z,1.08
2022-10-06T12:39:24.657Z,0.85
2022-10-06T12:42:20.756Z,1.25
2022-10-06T12:45:16.958Z,0.90
2022-10-06T12:48:06.853Z,0.77
2022-10-06T12:51:03.059Z,1.05
2022-10-06T12:54:03.796Z,1.25
2022-10-06T12:57:02.821Z,1.02
2022-10-06T12:59:49.607Z,0.73
2022-10-06T13:02:35.072Z,1.02
2022-10-06T13:05:20.672Z,1.02
2022-10-06T13:08:20.973Z,1.00
2022-10-06T13:11:12.798Z,0.82
2022-10-06T13:14:08.051Z,1.45
2022-10-06T13:16:53.368Z,0.88
2022-10-06T13:19:44.278Z,0.90
2022-10-06T13:22:29.778Z,0.80
2022-10-06T13:25:16.533Z,0.85
2022-10-06T13:28:02.607Z,0.88
2022-10-06T13:30:57.549Z,0.90
2022-10-06T13:33:45.353Z,2.70
2022-10-06T13:36:34.656Z,0.95
2022-10-06T13:39:22.652Z,0.90
2022-10-06T13:42:17.726Z,0.65
2022-10-06T13:45:04.054Z,0.70
2022-10-06T13:48:06.308Z,0.90
2022-10-06T13:50:55.632Z,1.00
2022-10-06T13:53:46.181Z,0.60
2022-10-06T13:56:38.937Z,0.75
2022-10-06T13:59:37.232Z,1.10
2022-10-06T14:02:32.435Z,1.00
2022-10-06T14:05:29.830Z,0.60
2022-10-06T14:08:27.821Z,1.00
2022-10-06T14:11:13.141Z,1.00
2022-10-06T14:14:02.468Z,0.82
2022-10-06T14:16:53.412Z,1.15
2022-10-06T14:19:42.826Z,0.82
2022-10-06T14:22:34.519Z,0.90
2022-10-06T14:25:19.942Z,0.73
2022-10-06T14:28:05.434Z,0.63
2022-10-06T14:30:50.972Z,0.65
2022-10-06T14:33:36.391Z,0.50
2022-10-06T14:36:30.972Z,0.50
2022-10-06T14:39:16.677Z,0.63
2022-10-06T14:42:01.953Z,0.75
2022-10-06T14:44:48.288Z,0.60
2022-10-06T14:47:33.719Z,0.70
2022-10-06T14:50:19.182Z,0.70
2022-10-06T14:53:05.031Z,0.77
2022-10-06T14:55:50.331Z,1.00
2022-10-06T14:58:42.562Z,0.57
2022-10-06T15:01:29.403Z,0.70
2022-10-06T15:04:20.519Z,0.57
2022-10-06T15:07:24.429Z,0.50
2022-10-06T15:10:10.011Z,0.70
2022-10-06T15:12:57.063Z,0.73
2022-10-06T15:15:42.877Z,1.23
2022-10-06T15:18:28.442Z,0.63
2022-10-06T15:21:13.821Z,0.52
2022-10-06T15:24:01.573Z,0.68
2022-10-06T15:27:05.855Z,0.93
2022-10-06T15:29:51.441Z,0.70
2022-10-06T15:32:37.222Z,0.68
2022-10-06T15:35:22.594Z,1.00
2022-10-06T15:38:08.110Z,0.75
2022-10-06T15:41:02.636Z,1.02
2022-10-06T15:43:55.226Z,0.60
2022-10-06T15:46:45.991Z,1.00
2022-10-06T15:49:33.171Z,0.98
2022-10-06T15:52:19.031Z,0.98
2022-10-06T15:55:05.283Z,0.60
2022-10-06T15:57:53.008Z,0.77
2022-10-06T16:00:38.167Z,0.75
2022-10-06T16:03:41.068Z,0.50
2022-10-06T16:06:41.654Z,1.02
2022-10-06T16:09:30.604Z,0.85
2022-10-06T16:12:19.266Z,0.68
2022-10-06T16:15:05.079Z,0.50
2022-10-06T16:17:50.532Z,0.90
2022-10-06T16:20:35.934Z,0.60
2022-10-06T16:23:24.359Z,0.80
2022-10-06T16:26:09.746Z,0.90
2022-10-06T16:28:55.295Z,0.73
2022-10-06T16:31:41.237Z,0.50
2022-10-06T16:34:27.110Z,0.50
2022-10-06T16:37:12.724Z,1.02
2022-10-06T16:39:58.488Z,1.73
2022-10-06T16:42:45.806Z,1.17
2022-10-06T16:45:31.582Z,1.10
2022-10-06T16:48:16.896Z,0.80
2022-10-06T16:51:11.673Z,1.20
2022-10-06T16:53:59.611Z,1.02
2022-10-06T16:56:48.349Z,1.30
2022-10-06T16:59:33.751Z,0.82
2022-10-06T17:02:19.366Z,0.93
2022-10-06T17:05:05.641Z,1.67
2022-10-06T17:07:53.488Z,1.20
2022-10-06T17:10:41.357Z,1.42
2022-10-06T17:13:27.215Z,4.15
2022-10-06T17:16:16.106Z,2.45
2022-10-06T17:19:02.474Z,1.15
2022-10-06T17:21:51.604Z,2.03
2022-10-06T17:24:39.723Z,1.65
2022-10-06T17:27:28.673Z,1.45
2022-10-06T17:30:15.572Z,2.47
2022-10-06T17:33:02.251Z,2.00
2022-10-06T17:35:48.679Z,1.77
2022-10-06T17:38:36.589Z,2.78
2022-10-06T17:41:29.621Z,1.02
2022-10-06T17:44:21.385Z,1.17
2022-10-06T17:47:07.571Z,1.25
2022-10-06T17:49:52.891Z,1.15
2022-10-06T17:52:38.947Z,1.25
2022-10-06T17:55:28.042Z,0.77
2022-10-06T17:58:17.908Z,0.82
2022-10-06T18:01:07.404Z,1.20
2022-10-06T18:03:55.388Z,1.00
2022-10-06T18:06:42.060Z,0.82
2022-10-06T18:09:27.476Z,1.00
2022-10-06T18:12:13.032Z,0.77
2022-10-06T18:14:58.395Z,1.25
2022-10-06T18:17:43.922Z,0.90
2022-10-06T18:20:31.653Z,1.30
2022-10-06T18:23:17.151Z,1.10
2022-10-06T18:26:06.015Z,1.40
2022-10-06T18:28:51.388Z,1.42
2022-10-06T18:31:38.161Z,1.40
2022-10-06T18:37:29.138Z,1.10
2022-10-06T18:40:14.978Z,1.23
2022-10-06T18:43:00.755Z,1.10
2022-10-06T18:46:04.709Z,0.95
2022-10-06T18:48:58.386Z,2.72
2022-10-06T18:51:52.597Z,9.68
2022-10-06T18:54:44.544Z,7.50
2022-10-06T18:57:29.852Z,4.32
2022-10-06T19:00:15.499Z,2.30
2022-10-06T19:03:01.245Z,1.30
2022-10-06T19:05:53.052Z,1.23
2022-10-06T19:08:38.567Z,1.58
2022-10-06T19:11:42.147Z,1.20
2022-10-06T19:14:35.368Z,0.93
2022-10-06T19:17:22.960Z,1.20
2022-10-06T19:20:10.952Z,1.02
2022-10-06T19:22:56.395Z,1.02
2022-10-06T19:25:41.705Z,1.30
2022-10-06T19:28:30.827Z,1.02
2022-10-06T19:31:20.071Z,1.15
2022-10-06T19:34:08.579Z,0.80
2022-10-06T19:36:54.875Z,0.63
2022-10-06T19:39:43.434Z,1.15
2022-10-06T19:42:47.369Z,0.77
2022-10-06T19:45:32.987Z,0.85
2022-10-06T19:48:20.306Z,1.20
2022-10-06T19:51:14.217Z,1.30
2022-10-06T19:53:59.596Z,1.38
2022-10-06T19:56:46.477Z,0.85
2022-10-06T19:59:32.155Z,1.35
2022-10-06T20:02:17.674Z,1.25
2022-10-06T20:05:03.084Z,1.35
2022-10-06T20:07:48.660Z,1.30
2022-10-06T20:10:34.867Z,1.10
2022-10-06T20:13:20.696Z,1.17
2022-10-06T20:16:10.338Z,1.45
2022-10-06T20:18:55.641Z,1.08
2022-10-06T20:21:41.589Z,0.88
2022-10-06T20:24:27.947Z,1.55
2022-10-06T20:27:13.929Z,1.77
2022-10-06T20:29:59.463Z,1.20
2022-10-06T20:32:44.862Z,1.48
2022-10-06T20:35:30.479Z,1.67
2022-10-06T20:38:16.212Z,1.73
2022-10-06T20:41:01.816Z,1.45
2022-10-06T20:43:47.491Z,1.42
2022-10-06T20:46:35.593Z,1.70
2022-10-06T20:49:22.096Z,1.67
2022-10-06T20:52:10.153Z,1.02
2022-10-06T20:54:55.938Z,1.50
2022-10-06T20:57:42.618Z,0.90
2022-10-06T21:00:28.003Z,1.20
2022-10-06T21:03:14.152Z,1.73
2022-10-06T21:06:00.183Z,1.63
2022-10-06T21:08:46.681Z,1.05
2022-10-06T21:11:32.400Z,1.10
2022-10-06T21:14:18.442Z,0.90
2022-10-06T21:17:04.407Z,1.63
2022-10-06T21:19:50.427Z,1.08
2022-10-06T21:22:35.938Z,1.42
2022-10-06T21:25:21.400Z,1.17
2022-10-06T21:28:07.191Z,1.23
2022-10-06T21:30:55.487Z,1.38
2022-10-06T21:33:42.734Z,1.35
2022-10-06T21:36:31.345Z,0.98
2022-10-06T21:39:16.919Z,0.90
2022-10-06T21:42:02.578Z,1.52
2022-10-06T21:44:48.081Z,1.00
2022-10-06T21:47:34.709Z,1.25
2022-10-06T21:50:20.123Z,1.45
2022-10-06T21:53:06.046Z,1.48
2022-10-06T21:55:53.817Z,1.35
2022-10-06T21:58:39.187Z,1.95
2022-10-06T22:01:28.059Z,1.35
2022-10-06T22:04:15.016Z,1.48
2022-10-06T22:07:00.436Z,1.38
2022-10-06T22:09:45.988Z,0.90
2022-10-06T22:12:31.422Z,1.02
2022-10-06T22:15:17.053Z,1.52
2022-10-06T22:18:02.702Z,1.17
2022-10-06T22:20:48.116Z,1.20
2022-10-06T22:23:33.626Z,1.23
2022-10-06T22:26:19.272Z,1.17
2022-10-06T22:29:07.170Z,1.35
2022-10-06T22:31:52.869Z,1.23
2022-10-06T22:34:38.440Z,0.98
2022-10-06T22:37:24.147Z,1.00
2022-10-06T22:40:10.414Z,0.77
2022-10-06T22:42:56.116Z,1.33
2022-10-06T22:45:41.584Z,0.77
2022-10-06T22:48:27.304Z,1.42
2022-10-06T22:51:12.971Z,1.35
2022-10-06T22:54:00.002Z,1.83
2022-10-06T22:56:46.041Z,0.80
2022-10-06T22:59:31.406Z,1.38
2022-10-06T23:02:16.741Z,1.90
2022-10-06T23:05:02.098Z,1.98
2022-10-06T23:07:47.715Z,2.85
2022-10-06T23:10:36.881Z,2.58
2022-10-06T23:13:22.513Z,2.30
2022-10-06T23:16:10.395Z,1.92
2022-10-06T23:18:55.914Z,1.58
2022-10-06T23:21:41.397Z,1.20
2022-10-06T23:24:26.937Z,1.23
2022-10-06T23:27:14.260Z,1.13
2022-10-06T23:30:00.595Z,1.30
2022-10-06T23:32:46.115Z,1.60
2022-10-06T23:35:31.610Z,1.08
2022-10-06T23:38:17.015Z,1.13
2022-10-06T23:41:02.582Z,1.08
2022-10-06T23:43:48.253Z,1.10
2022-10-06T23:46:33.821Z,1.08
2022-10-06T23:49:19.509Z,1.40
2022-10-06T23:52:05.079Z,1.10
2022-10-06T23:54:50.334Z,0.70
2022-10-06T23:57:35.692Z,1.10
